createdAt,value
2023-04-02T00:00:49.781Z,21.70
2023-04-02T00:01:49.804Z,21.71
2023-04-02T00:02:49.953Z,21.73
2023-04-02T00:03:49.864Z,21.74
2023-04-02T00:04:49.854Z,21.75
2023-04-02T00:05:49.886Z,21.76
2023-04-02T00:06:49.901Z,21.76
2023-04-02T00:07:49.938Z,21.75
2023-04-02T00:08:49.957Z,21.76
2023-04-02T00:09:49.989Z,21.76
2023-04-02T00:10:50.018Z,21.76
2023-04-02T00:11:50.041Z,21.76
2023-04-02T00:12:50.083Z,21.76
2023-04-02T00:13:50.110Z,21.76
2023-04-02T00:14:50.121Z,21.77
2023-04-02T00:15:50.133Z,21.76
2023-04-02T00:16:50.212Z,21.76
2023-04-02T00:17:50.222Z,21.76
2023-04-02T00:18:50.239Z,21.77
2023-04-02T00:19:50.253Z,21.76
2023-04-02T00:20:50.276Z,21.76
2023-04-02T00:21:50.301Z,21.76
2023-04-02T00:22:50.336Z,21.77
2023-04-02T00:23:50.362Z,21.76
2023-04-02T00:24:50.378Z,21.76
2023-04-02T00:25:50.410Z,21.76
2023-04-02T00:26:50.435Z,21.76
2023-04-02T00:27:50.463Z,21.76
2023-04-02T00:28:50.521Z,21.76
2023-04-02T00:29:50.532Z,21.76
2023-04-02T00:30:50.561Z,21.76
2023-04-02T00:31:50.703Z,21.76
2023-04-02T00:32:50.671Z,21.76
2023-04-02T00:33:50.665Z,21.76
2023-04-02T00:34:50.678Z,21.76
2023-04-02T00:35:50.789Z,21.76
2023-04-02T00:36:50.734Z,21.76
2023-04-02T00:37:50.802Z,21.76
2023-04-02T00:38:50.801Z,21.76
2023-04-02T00:39:50.823Z,21.75
2023-04-02T00:40:50.846Z,21.76
2023-04-02T00:41:50.874Z,21.75
2023-04-02T00:42:50.914Z,21.75
2023-04-02T00:43:50.961Z,21.75
2023-04-02T00:44:51.002Z,21.74
2023-04-02T00:45:51.920Z,21.74
2023-04-02T00:46:51.027Z,21.75
2023-04-02T00:47:51.105Z,21.75
2023-04-02T00:48:51.074Z,21.74
2023-04-02T00:49:51.100Z,21.75
2023-04-02T00:50:51.131Z,21.74
2023-04-02T00:51:51.167Z,21.74
2023-04-02T00:52:51.197Z,21.74
2023-04-02T00:53:51.229Z,21.75
2023-04-02T00:54:51.261Z,21.75
2023-04-02T00:55:51.286Z,21.75
2023-04-02T00:56:51.341Z,21.75
2023-04-02T00:57:51.356Z,21.74
2023-04-02T00:58:51.378Z,21.75
2023-04-02T00:59:51.407Z,21.74
2023-04-02T01:00:51.456Z,21.75
2023-04-02T01:01:51.536Z,21.75
2023-04-02T01:02:51.572Z,21.74
2023-04-02T01:03:51.531Z,21.73
2023-04-02T01:04:51.549Z,21.74
2023-04-02T01:05:51.574Z,21.74
2023-04-02T01:06:51.605Z,21.75
2023-04-02T01:07:51.628Z,21.74
2023-04-02T01:08:51.660Z,21.73
2023-04-02T01:09:51.695Z,21.74
2023-04-02T01:10:51.727Z,21.74
2023-04-02T01:11:51.743Z,21.74
2023-04-02T01:12:51.788Z,21.73
2023-04-02T01:13:51.802Z,21.73
2023-04-02T01:14:51.823Z,21.74
2023-04-02T01:15:51.872Z,21.74
2023-04-02T01:16:51.910Z,21.74
2023-04-02T01:17:51.928Z,21.73
2023-04-02T01:18:51.941Z,21.73
2023-04-02T01:19:51.970Z,21.73
2023-04-02T01:20:51.997Z,21.73
2023-04-02T01:21:52.026Z,21.73
2023-04-02T01:22:52.065Z,21.73
2023-04-02T01:23:52.086Z,21.72
2023-04-02T01:24:52.110Z,21.73
2023-04-02T01:25:52.162Z,21.73
2023-04-02T01:26:52.171Z,21.73
2023-04-02T01:27:52.200Z,21.73
2023-04-02T01:28:52.234Z,21.73
2023-04-02T01:29:52.259Z,21.73
2023-04-02T01:30:52.276Z,21.73
2023-04-02T01:31:52.353Z,21.72
2023-04-02T01:32:52.384Z,21.72
2023-04-02T01:33:52.377Z,21.73
2023-04-02T01:34:52.408Z,21.73
2023-04-02T01:35:52.465Z,21.73
2023-04-02T01:36:52.472Z,21.73
2023-04-02T01:37:52.507Z,21.73
2023-04-02T01:38:52.544Z,21.73
2023-04-02T01:39:52.555Z,21.73
2023-04-02T01:40:52.583Z,21.73
2023-04-02T01:41:52.621Z,21.73
2023-04-02T01:42:52.651Z,21.73
2023-04-02T01:43:52.898Z,21.73
2023-04-02T01:44:52.722Z,21.73
2023-04-02T01:45:52.733Z,21.73
2023-04-02T01:46:52.812Z,21.73
2023-04-02T01:47:52.872Z,21.72
2023-04-02T01:48:52.850Z,21.72
2023-04-02T01:49:52.852Z,21.72
2023-04-02T01:50:52.876Z,21.73
2023-04-02T01:51:52.911Z,21.72
2023-04-02T01:52:52.930Z,21.73
2023-04-02T01:53:52.956Z,21.72
2023-04-02T01:54:52.988Z,21.72
2023-04-02T01:55:53.014Z,21.72
2023-04-02T01:56:53.141Z,21.73
2023-04-02T01:57:53.090Z,21.72
2023-04-02T01:58:53.116Z,21.72
2023-04-02T01:59:53.186Z,21.72
2023-04-02T02:00:53.298Z,21.72
2023-04-02T02:01:53.265Z,21.72
2023-04-02T02:02:53.286Z,21.72
2023-04-02T02:03:53.267Z,21.72
2023-04-02T02:04:53.329Z,21.72
2023-04-02T02:05:53.330Z,21.72
2023-04-02T02:06:53.364Z,21.72
2023-04-02T02:07:53.394Z,21.72
2023-04-02T02:08:53.437Z,21.72
2023-04-02T02:09:54.306Z,21.71
2023-04-02T02:10:53.485Z,21.72
2023-04-02T02:11:53.517Z,21.72
2023-04-02T02:12:53.553Z,21.72
2023-04-02T02:13:53.579Z,21.72
2023-04-02T02:14:53.610Z,21.72
2023-04-02T02:15:53.640Z,21.72
2023-04-02T02:16:53.665Z,21.72
2023-04-02T02:17:53.716Z,21.71
2023-04-02T02:18:53.731Z,21.72
2023-04-02T02:19:53.772Z,21.72
2023-04-02T02:20:53.823Z,21.72
2023-04-02T02:21:53.816Z,21.71
2023-04-02T02:22:53.850Z,21.71
2023-04-02T02:23:53.880Z,21.72
2023-04-02T02:24:53.911Z,21.71
2023-04-02T02:25:53.935Z,21.72
2023-04-02T02:26:53.963Z,21.71
2023-04-02T02:27:54.006Z,21.72
2023-04-02T02:28:54.024Z,21.71
2023-04-02T02:29:54.049Z,21.72
2023-04-02T02:30:54.101Z,21.71
2023-04-02T02:31:54.170Z,21.71
2023-04-02T02:32:54.199Z,21.71
2023-04-02T02:33:54.178Z,21.70
2023-04-02T02:34:54.238Z,21.71
2023-04-02T02:35:54.245Z,21.71
2023-04-02T02:36:54.299Z,21.71
2023-04-02T02:37:54.300Z,21.71
2023-04-02T02:38:54.905Z,21.71
2023-04-02T02:39:54.378Z,21.71
2023-04-02T02:40:54.400Z,21.70
2023-04-02T02:41:54.413Z,21.71
2023-04-02T02:42:54.464Z,21.70
2023-04-02T02:43:54.487Z,21.71
2023-04-02T02:44:54.524Z,21.70
2023-04-02T02:45:54.562Z,21.70
2023-04-02T02:46:54.569Z,21.71
2023-04-02T02:47:54.654Z,21.71
2023-04-02T02:48:54.629Z,21.70
2023-04-02T02:49:54.677Z,21.70
2023-04-02T02:50:54.709Z,21.71
2023-04-02T02:51:54.730Z,21.71
2023-04-02T02:52:54.797Z,21.71
2023-04-02T02:53:54.796Z,21.70
2023-04-02T02:54:54.828Z,21.70
2023-04-02T02:55:54.865Z,21.71
2023-04-02T02:56:54.943Z,21.71
2023-04-02T02:57:54.927Z,21.70
2023-04-02T02:58:54.953Z,21.70
2023-04-02T02:59:54.991Z,21.70
2023-04-02T03:00:55.032Z,21.70
2023-04-02T03:01:55.061Z,21.70
2023-04-02T03:02:55.270Z,21.71
2023-04-02T03:03:55.401Z,21.70
2023-04-02T03:04:55.146Z,21.70
2023-04-02T03:05:55.185Z,21.70
2023-04-02T03:06:55.211Z,21.70
2023-04-02T03:07:55.245Z,21.70
2023-04-02T03:08:55.304Z,21.71
2023-04-02T03:09:55.308Z,21.70
2023-04-02T03:10:55.338Z,21.70
2023-04-02T03:11:55.607Z,21.70
2023-04-02T03:12:55.397Z,21.69
2023-04-02T03:13:55.431Z,21.69
2023-04-02T03:14:55.458Z,21.70
2023-04-02T03:15:55.504Z,21.70
2023-04-02T03:16:55.517Z,21.70
2023-04-02T03:17:55.559Z,21.70
2023-04-02T03:18:55.580Z,21.70
2023-04-02T03:19:55.623Z,21.70
2023-04-02T03:20:55.657Z,21.71
2023-04-02T03:21:55.683Z,21.72
2023-04-02T03:22:55.722Z,21.74
2023-04-02T03:23:55.756Z,21.75
2023-04-02T03:24:56.347Z,21.76
2023-04-02T03:25:55.824Z,21.78
2023-04-02T03:26:55.843Z,21.81
2023-04-02T03:27:55.870Z,21.83
2023-04-02T03:28:55.942Z,21.85
2023-04-02T03:29:55.930Z,21.85
2023-04-02T03:30:55.994Z,21.86
2023-04-02T03:31:55.987Z,21.87
2023-04-02T03:32:56.037Z,21.89
2023-04-02T03:33:56.027Z,21.91
2023-04-02T03:34:56.051Z,21.91
2023-04-02T03:35:56.120Z,21.92
2023-04-02T03:36:56.091Z,21.93
2023-04-02T03:37:56.115Z,21.93
2023-04-02T03:38:56.128Z,21.94
2023-04-02T03:39:56.142Z,21.95
2023-04-02T03:40:56.186Z,21.96
2023-04-02T03:41:56.182Z,21.96
2023-04-02T03:42:56.198Z,21.97
2023-04-02T03:43:56.209Z,21.98
2023-04-02T03:44:56.220Z,21.97
2023-04-02T03:45:56.231Z,21.98
2023-04-02T03:46:56.244Z,21.97
2023-04-02T03:47:56.307Z,21.98
2023-04-02T03:48:56.285Z,21.99
2023-04-02T03:49:56.287Z,21.99
2023-04-02T03:50:56.294Z,21.99
2023-04-02T03:51:56.301Z,21.99
2023-04-02T03:52:56.306Z,21.99
2023-04-02T03:53:56.310Z,21.99
2023-04-02T03:54:56.334Z,21.99
2023-04-02T03:55:56.337Z,21.98
2023-04-02T03:56:56.395Z,21.98
2023-04-02T03:57:56.349Z,21.98
2023-04-02T03:58:56.361Z,21.98
2023-04-02T03:59:56.361Z,21.99
2023-04-02T04:00:56.378Z,21.98
2023-04-02T04:01:56.445Z,21.99
2023-04-02T04:02:56.406Z,21.99
2023-04-02T04:03:56.437Z,21.99
2023-04-02T04:04:56.408Z,21.99
2023-04-02T04:05:56.407Z,21.99
2023-04-02T04:06:56.410Z,21.99
2023-04-02T04:07:56.415Z,21.99
2023-04-02T04:08:56.418Z,21.98
2023-04-02T04:09:56.428Z,21.98
2023-04-02T04:10:56.487Z,21.99
2023-04-02T04:11:56.439Z,21.99
2023-04-02T04:12:56.496Z,21.99
2023-04-02T04:13:56.450Z,21.99
2023-04-02T04:14:56.446Z,21.99
2023-04-02T04:15:56.450Z,22.00
2023-04-02T04:16:56.502Z,22.00
2023-04-02T04:17:56.556Z,22.00
2023-04-02T04:18:56.458Z,22.01
2023-04-02T04:19:56.471Z,22.00
2023-04-02T04:20:56.822Z,22.00
2023-04-02T04:21:56.496Z,22.00
2023-04-02T04:22:56.486Z,22.01
2023-04-02T04:23:56.500Z,22.01
2023-04-02T04:24:56.503Z,22.01
2023-04-02T04:25:56.508Z,22.01
2023-04-02T04:26:56.528Z,22.01
2023-04-02T04:27:56.537Z,22.02
2023-04-02T04:28:56.552Z,22.02
2023-04-02T04:29:56.527Z,22.03
2023-04-02T04:30:56.549Z,22.02
2023-04-02T04:31:56.613Z,22.02
2023-04-02T04:32:56.570Z,22.03
2023-04-02T04:33:56.562Z,22.03
2023-04-02T04:34:56.576Z,22.03
2023-04-02T04:35:56.628Z,22.03
2023-04-02T04:36:56.614Z,22.03
2023-04-02T04:37:56.592Z,22.04
2023-04-02T04:38:56.628Z,22.03
2023-04-02T04:39:56.620Z,22.03
2023-04-02T04:40:56.638Z,22.03
2023-04-02T04:41:56.642Z,22.04
2023-04-02T04:42:56.656Z,22.03
2023-04-02T04:43:56.669Z,22.03
2023-04-02T04:44:56.709Z,22.03
2023-04-02T04:45:56.705Z,22.04
2023-04-02T04:46:56.705Z,22.03
2023-04-02T04:47:56.746Z,22.03
2023-04-02T04:48:56.732Z,22.03
2023-04-02T04:49:56.737Z,22.04
2023-04-02T04:50:56.756Z,22.03
2023-04-02T04:51:56.775Z,22.03
2023-04-02T04:52:56.784Z,22.03
2023-04-02T04:53:56.799Z,22.03
2023-04-02T04:54:56.812Z,22.04
2023-04-02T04:55:59.695Z,22.04
2023-04-02T04:56:56.865Z,22.03
2023-04-02T04:57:57.186Z,22.03
2023-04-02T04:58:56.828Z,22.03
2023-04-02T04:59:56.802Z,22.04
2023-04-02T05:00:56.825Z,22.03
2023-04-02T05:01:56.850Z,22.03
2023-04-02T05:02:56.812Z,22.04
2023-04-02T05:03:56.786Z,22.03
2023-04-02T05:04:56.861Z,22.04
2023-04-02T05:05:56.769Z,22.04
2023-04-02T05:06:56.774Z,22.03
2023-04-02T05:07:57.879Z,22.03
2023-04-02T05:08:56.755Z,22.03
2023-04-02T05:09:56.759Z,22.04
2023-04-02T05:10:56.750Z,22.05
2023-04-02T05:11:56.754Z,22.05
2023-04-02T05:12:56.741Z,22.04
2023-04-02T05:13:56.761Z,22.04
2023-04-02T05:14:56.744Z,22.04
2023-04-02T05:15:56.809Z,22.04
2023-04-02T05:16:56.767Z,22.04
2023-04-02T05:17:57.269Z,22.04
2023-04-02T05:18:56.742Z,22.04
2023-04-02T05:19:56.773Z,22.05
2023-04-02T05:20:56.747Z,22.04
2023-04-02T05:21:56.732Z,22.04
2023-04-02T05:22:56.729Z,22.05
2023-04-02T05:23:56.727Z,22.05
2023-04-02T05:24:56.713Z,22.06
2023-04-02T05:25:56.710Z,22.05
2023-04-02T05:26:56.735Z,22.05
2023-04-02T05:27:56.687Z,22.06
2023-04-02T05:28:56.684Z,22.07
2023-04-02T05:29:56.676Z,22.07
2023-04-02T05:30:56.694Z,22.07
2023-04-02T05:31:56.653Z,22.07
2023-04-02T05:32:56.692Z,22.07
2023-04-02T05:33:56.638Z,22.08
2023-04-02T05:34:56.663Z,22.08
2023-04-02T05:35:56.681Z,22.07
2023-04-02T05:36:56.642Z,22.08
2023-04-02T05:37:56.605Z,22.08
2023-04-02T05:38:56.603Z,22.07
2023-04-02T05:39:56.606Z,22.08
2023-04-02T05:40:56.590Z,22.08
2023-04-02T05:41:56.583Z,22.08
2023-04-02T05:42:56.571Z,22.08
2023-04-02T05:43:56.562Z,22.08
2023-04-02T05:44:56.553Z,22.08
2023-04-02T05:45:56.548Z,22.09
2023-04-02T05:46:56.591Z,22.09
2023-04-02T05:47:56.550Z,22.09
2023-04-02T05:48:56.564Z,22.09
2023-04-02T05:49:56.545Z,22.10
2023-04-02T05:50:56.520Z,22.09
2023-04-02T05:51:57.584Z,22.08
2023-04-02T05:52:56.508Z,22.08
2023-04-02T05:53:56.496Z,22.09
2023-04-02T05:54:56.488Z,22.09
2023-04-02T05:55:56.480Z,22.09
2023-04-02T05:56:56.516Z,22.09
2023-04-02T05:58:17.748Z,22.10
2023-04-02T05:58:56.492Z,22.10
2023-04-02T05:59:56.467Z,22.09
2023-04-02T06:00:56.449Z,22.10
2023-04-02T06:01:56.458Z,22.10
2023-04-02T06:02:56.533Z,22.11
2023-04-02T06:03:56.500Z,22.11
2023-04-02T06:04:56.476Z,22.13
2023-04-02T06:05:56.425Z,22.13
2023-04-02T06:06:56.420Z,22.13
2023-04-02T06:07:56.416Z,22.12
2023-04-02T06:08:56.413Z,22.13
2023-04-02T06:09:56.408Z,22.13
2023-04-02T06:10:56.400Z,22.14
2023-04-02T06:11:56.390Z,22.14
2023-04-02T06:12:56.385Z,22.14
2023-04-02T06:13:56.381Z,22.15
2023-04-02T06:14:56.371Z,22.15
2023-04-02T06:15:56.355Z,22.15
2023-04-02T06:16:56.456Z,22.14
2023-04-02T06:17:56.381Z,22.15
2023-04-02T06:18:56.564Z,22.17
2023-04-02T06:19:56.324Z,22.18
2023-04-02T06:20:56.348Z,22.18
2023-04-02T06:21:56.300Z,22.20
2023-04-02T06:22:56.298Z,22.21
2023-04-02T06:23:56.312Z,22.23
2023-04-02T06:24:56.286Z,22.24
2023-04-02T06:25:56.273Z,22.24
2023-04-02T06:26:56.295Z,22.24
2023-04-02T06:27:56.272Z,22.24
2023-04-02T06:28:56.265Z,22.24
2023-04-02T06:29:56.251Z,22.24
2023-04-02T06:30:56.272Z,22.25
2023-04-02T06:31:56.237Z,22.26
2023-04-02T06:32:56.312Z,22.28
2023-04-02T06:33:56.260Z,22.31
2023-04-02T06:34:56.219Z,22.35
2023-04-02T06:35:56.235Z,22.40
2023-04-02T06:36:56.220Z,22.50
2023-04-02T06:37:56.181Z,22.67
2023-04-02T06:38:56.164Z,23.07
2023-04-02T06:39:56.145Z,23.37
2023-04-02T06:40:58.609Z,23.42
2023-04-02T06:41:56.128Z,23.35
2023-04-02T06:42:56.080Z,23.54
2023-04-02T06:43:56.061Z,23.84
2023-04-02T06:44:56.021Z,24.17
2023-04-02T06:45:56.003Z,24.53
2023-04-02T06:46:55.951Z,24.95
2023-04-02T06:47:55.951Z,25.36
2023-04-02T06:48:55.878Z,25.85
2023-04-02T06:49:55.815Z,26.33
2023-04-02T06:50:55.766Z,26.76
2023-04-02T06:51:55.709Z,27.15
2023-04-02T06:52:55.673Z,27.50
2023-04-02T06:53:55.583Z,27.84
2023-04-02T06:54:55.531Z,28.28
2023-04-02T06:55:55.444Z,28.55
2023-04-02T06:56:55.414Z,27.47
2023-04-02T06:57:55.313Z,26.60
2023-04-02T06:58:55.275Z,25.90
2023-04-02T06:59:55.214Z,25.58
2023-04-02T07:00:55.171Z,25.34
2023-04-02T07:01:55.230Z,25.52
2023-04-02T07:02:55.138Z,26.68
2023-04-02T07:03:55.054Z,27.56
2023-04-02T07:04:55.025Z,28.01
2023-04-02T07:05:54.929Z,29.07
2023-04-02T07:06:54.821Z,30.29
2023-04-02T07:07:54.740Z,30.35
2023-04-02T07:08:54.672Z,29.50
2023-04-02T07:09:54.569Z,28.18
2023-04-02T07:10:54.494Z,27.03
2023-04-02T07:11:54.442Z,26.15
2023-04-02T07:12:54.398Z,25.50
2023-04-02T07:13:54.346Z,25.06
2023-04-02T07:14:54.314Z,24.77
2023-04-02T07:15:54.313Z,24.74
2023-04-02T07:16:54.251Z,25.88
2023-04-02T07:17:54.206Z,26.74
2023-04-02T07:18:54.144Z,26.76
2023-04-02T07:19:54.101Z,26.19
2023-04-02T07:20:54.066Z,26.00
2023-04-02T07:21:54.066Z,25.65
2023-04-02T07:22:54.002Z,25.19
2023-04-02T07:23:54.040Z,24.97
2023-04-02T07:24:54.069Z,26.57
2023-04-02T07:25:54.012Z,28.41
2023-04-02T07:26:53.986Z,29.64
2023-04-02T07:27:53.928Z,30.44
2023-04-02T07:28:53.886Z,30.86
2023-04-02T07:29:53.805Z,31.08
2023-04-02T07:30:53.718Z,31.06
2023-04-02T07:31:53.775Z,30.48
2023-04-02T07:32:53.636Z,29.28
2023-04-02T07:33:53.513Z,28.21
2023-04-02T07:34:53.456Z,27.29
2023-04-02T07:35:53.457Z,26.54
2023-04-02T07:36:53.392Z,25.92
2023-04-02T07:37:53.382Z,25.46
2023-04-02T07:38:53.367Z,25.16
2023-04-02T07:39:53.340Z,24.98
2023-04-02T07:40:53.338Z,24.75
2023-04-02T07:41:53.320Z,24.51
2023-04-02T07:42:53.345Z,24.32
2023-04-02T07:43:53.371Z,24.14
2023-04-02T07:44:53.387Z,24.02
2023-04-02T07:45:53.382Z,23.92
2023-04-02T07:46:53.399Z,23.83
2023-04-02T07:47:53.391Z,23.76
2023-04-02T07:48:53.365Z,23.68
2023-04-02T07:49:53.357Z,23.64
2023-04-02T07:50:53.582Z,23.57
2023-04-02T07:51:53.390Z,23.56
2023-04-02T07:52:53.402Z,23.55
2023-04-02T07:53:53.418Z,23.53
2023-04-02T07:54:53.437Z,23.49
2023-04-02T07:55:53.458Z,23.48
2023-04-02T07:56:54.084Z,23.50
2023-04-02T07:57:53.508Z,23.74
2023-04-02T07:58:53.534Z,24.43
2023-04-02T07:59:53.537Z,25.28
2023-04-02T08:00:53.543Z,25.08
2023-04-02T08:01:53.631Z,24.60
2023-04-02T08:02:53.674Z,24.28
2023-04-02T08:03:54.669Z,24.32
2023-04-02T08:04:53.614Z,24.19
2023-04-02T08:05:53.629Z,23.98
2023-04-02T08:06:53.656Z,23.82
2023-04-02T08:07:53.675Z,23.74
2023-04-02T08:08:53.700Z,23.71
2023-04-02T08:09:53.726Z,23.79
2023-04-02T08:10:53.738Z,23.84
2023-04-02T08:11:53.764Z,23.86
2023-04-02T08:12:53.799Z,23.85
2023-04-02T08:13:53.791Z,23.79
2023-04-02T08:14:53.802Z,23.70
2023-04-02T08:15:53.815Z,23.64
2023-04-02T08:16:53.938Z,23.59
2023-04-02T08:17:53.878Z,23.56
2023-04-02T08:18:53.870Z,23.57
2023-04-02T08:19:55.161Z,23.57
2023-04-02T08:20:53.939Z,23.55
2023-04-02T08:21:53.963Z,23.52
2023-04-02T08:22:53.955Z,23.53
2023-04-02T08:23:53.966Z,23.52
2023-04-02T08:24:53.989Z,23.48
2023-04-02T08:25:53.999Z,23.41
2023-04-02T08:26:54.086Z,23.39
2023-04-02T08:27:54.041Z,23.40
2023-04-02T08:28:54.105Z,23.40
2023-04-02T08:29:54.088Z,23.39
2023-04-02T08:30:54.124Z,23.38
2023-04-02T08:31:54.106Z,23.36
2023-04-02T08:32:54.175Z,23.33
2023-04-02T08:33:54.171Z,23.31
2023-04-02T08:34:54.176Z,23.28
2023-04-02T08:35:54.245Z,23.27
2023-04-02T08:36:54.223Z,23.25
2023-04-02T08:37:54.259Z,23.23
2023-04-02T08:38:54.290Z,23.21
2023-04-02T08:39:54.301Z,23.21
2023-04-02T08:40:54.352Z,23.19
2023-04-02T08:41:54.348Z,23.17
2023-04-02T08:42:54.381Z,23.15
2023-04-02T08:43:54.416Z,23.14
2023-04-02T08:44:54.461Z,23.12
2023-04-02T08:45:54.497Z,23.12
2023-04-02T08:46:54.514Z,23.09
2023-04-02T08:47:54.562Z,23.08
2023-04-02T08:48:54.588Z,23.10
2023-04-02T08:49:54.614Z,23.10
2023-04-02T08:50:54.654Z,23.08
2023-04-02T08:51:54.694Z,23.07
2023-04-02T08:52:54.728Z,23.06
2023-04-02T08:53:54.789Z,23.04
2023-04-02T08:54:54.803Z,23.03
2023-04-02T08:55:54.840Z,23.02
2023-04-02T08:56:54.895Z,23.02
2023-04-02T08:57:54.937Z,23.01
2023-04-02T08:58:54.964Z,23.00
2023-04-02T08:59:55.004Z,23.00
2023-04-02T09:00:55.062Z,22.99
2023-04-02T09:01:55.121Z,22.99
2023-04-02T09:02:55.173Z,22.98
2023-04-02T09:03:55.183Z,22.97
2023-04-02T09:04:55.250Z,22.96
2023-04-02T09:05:55.265Z,22.93
2023-04-02T09:06:55.306Z,22.91
2023-04-02T09:07:55.343Z,22.90
2023-04-02T09:08:55.396Z,22.88
2023-04-02T09:09:55.445Z,22.87
2023-04-02T09:10:55.495Z,22.87
2023-04-02T09:11:55.548Z,22.86
2023-04-02T09:12:55.590Z,22.85
2023-04-02T09:13:55.670Z,22.84
2023-04-02T09:14:55.696Z,22.83
2023-04-02T09:15:55.786Z,22.82
2023-04-02T09:16:55.826Z,22.81
2023-04-02T09:17:57.646Z,22.81
2023-04-02T09:18:55.839Z,22.79
2023-04-02T09:19:55.824Z,22.79
2023-04-02T09:20:55.808Z,22.79
2023-04-02T09:21:55.799Z,22.79
2023-04-02T09:22:55.772Z,22.83
2023-04-02T09:23:55.751Z,22.83
2023-04-02T09:24:55.754Z,22.84
2023-04-02T09:26:03.419Z,22.87
2023-04-02T09:26:55.708Z,22.87
2023-04-02T09:27:55.691Z,22.88
2023-04-02T09:28:55.694Z,22.89
2023-04-02T09:29:55.656Z,22.88
2023-04-02T09:30:55.640Z,22.88
2023-04-02T09:31:55.669Z,22.88
2023-04-02T09:32:55.665Z,22.88
2023-04-02T09:33:55.587Z,22.87
2023-04-02T09:34:55.572Z,22.87
2023-04-02T09:35:55.572Z,22.87
2023-04-02T09:36:55.529Z,22.87
2023-04-02T09:37:55.530Z,22.86
2023-04-02T09:38:55.507Z,22.85
2023-04-02T09:39:55.487Z,22.85
2023-04-02T09:40:55.467Z,22.84
2023-04-02T09:42:05.104Z,22.84
2023-04-02T09:42:55.445Z,22.84
2023-04-02T09:43:55.420Z,22.84
2023-04-02T09:44:55.401Z,22.84
2023-04-02T09:45:55.392Z,22.84
2023-04-02T09:46:55.458Z,22.84
2023-04-02T09:47:55.366Z,22.83
2023-04-02T09:48:55.352Z,22.82
2023-04-02T09:49:55.312Z,22.81
2023-04-02T09:50:56.028Z,22.80
2023-04-02T09:51:55.278Z,22.80
2023-04-02T09:52:55.255Z,22.80
2023-04-02T09:53:55.242Z,22.79
2023-04-02T09:54:55.231Z,22.83
2023-04-02T09:55:55.203Z,22.81
2023-04-02T09:56:55.198Z,22.80
2023-04-02T09:57:55.178Z,22.78
2023-04-02T09:58:55.170Z,22.76
2023-04-02T09:59:55.159Z,22.75
2023-04-02T10:00:55.195Z,22.74
2023-04-02T10:01:55.122Z,22.75
2023-04-02T10:02:55.113Z,22.75
2023-04-02T10:03:55.212Z,22.81
2023-04-02T10:04:55.100Z,22.89
2023-04-02T10:05:55.054Z,22.90
2023-04-02T10:06:55.039Z,22.91
2023-04-02T10:07:55.024Z,22.91
2023-04-02T10:08:55.004Z,22.90
2023-04-02T10:09:54.982Z,22.89
2023-04-02T10:10:55.053Z,22.89
2023-04-02T10:11:54.955Z,22.92
2023-04-02T10:12:54.929Z,22.97
2023-04-02T10:13:54.911Z,22.96
2023-04-02T10:14:54.953Z,22.99
2023-04-02T10:15:55.011Z,23.01
2023-04-02T10:16:55.106Z,23.03
2023-04-02T10:17:55.147Z,23.06
2023-04-02T10:18:55.116Z,23.07
2023-04-02T10:19:55.160Z,23.08
2023-04-02T10:20:55.210Z,23.07
2023-04-02T10:21:55.241Z,23.07
2023-04-02T10:22:55.264Z,23.09
2023-04-02T10:23:55.309Z,23.08
2023-04-02T10:24:55.347Z,23.08
2023-04-02T10:25:55.386Z,23.06
2023-04-02T10:26:55.427Z,23.04
2023-04-02T10:27:55.469Z,23.04
2023-04-02T10:28:55.504Z,23.03
2023-04-02T10:29:55.540Z,23.02
2023-04-02T10:30:55.609Z,23.01
2023-04-02T10:31:56.089Z,23.01
2023-04-02T10:32:55.703Z,23.01
2023-04-02T10:33:55.701Z,23.01
2023-04-02T10:34:55.742Z,23.01
2023-04-02T10:35:55.818Z,23.01
2023-04-02T10:36:55.849Z,23.00
2023-04-02T10:37:55.868Z,22.99
2023-04-02T10:38:55.914Z,22.97
2023-04-02T10:39:55.950Z,22.97
2023-04-02T10:40:57.069Z,22.96
2023-04-02T10:41:56.024Z,22.96
2023-04-02T10:42:56.072Z,22.96
2023-04-02T10:43:59.304Z,22.95
2023-04-02T10:44:56.092Z,22.93
2023-04-02T10:45:56.126Z,22.92
2023-04-02T10:46:56.058Z,22.92
2023-04-02T10:47:56.097Z,22.91
2023-04-02T10:48:56.029Z,22.90
2023-04-02T10:49:56.009Z,22.89
2023-04-02T10:50:55.981Z,22.88
2023-04-02T10:51:55.969Z,22.87
2023-04-02T10:52:56.699Z,22.86
2023-04-02T10:53:55.937Z,22.87
2023-04-02T10:54:55.922Z,22.85
2023-04-02T10:55:55.909Z,22.86
2023-04-02T10:56:55.928Z,22.85
2023-04-02T10:57:55.872Z,22.84
2023-04-02T10:58:57.446Z,22.84
2023-04-02T10:59:56.086Z,22.84
2023-04-02T11:00:56.142Z,22.84
2023-04-02T11:01:56.317Z,22.83
2023-04-02T11:02:56.570Z,22.83
2023-04-02T11:03:58.180Z,22.83
2023-04-02T11:04:57.511Z,22.82
2023-04-02T11:05:57.198Z,22.81
2023-04-02T11:07:07.260Z,22.81
2023-04-02T11:07:56.238Z,22.80
2023-04-02T11:08:56.239Z,22.80
2023-04-02T11:09:56.204Z,22.80
2023-04-02T11:10:56.183Z,22.80
2023-04-02T11:11:56.163Z,22.79
2023-04-02T11:12:56.141Z,22.80
2023-04-02T11:13:56.135Z,22.79
2023-04-02T11:14:56.123Z,22.80
2023-04-02T11:15:56.133Z,22.80
2023-04-02T11:16:56.077Z,22.81
2023-04-02T11:17:56.120Z,22.83
2023-04-02T11:18:56.047Z,22.84
2023-04-02T11:19:56.044Z,22.86
2023-04-02T11:20:56.021Z,22.87
2023-04-02T11:21:59.919Z,22.86
2023-04-02T11:22:55.998Z,22.84
2023-04-02T11:23:55.985Z,22.84
2023-04-02T11:24:56.014Z,22.83
2023-04-02T11:25:55.944Z,22.84
2023-04-02T11:26:55.928Z,22.83
2023-04-02T11:27:55.915Z,22.83
2023-04-02T11:28:55.897Z,22.83
2023-04-02T11:29:55.884Z,22.82
2023-04-02T11:30:56.290Z,22.81
2023-04-02T11:31:55.850Z,22.80
2023-04-02T11:32:55.887Z,22.80
2023-04-02T11:33:55.818Z,22.79
2023-04-02T11:35:06.731Z,22.77
2023-04-02T11:35:55.805Z,22.76
2023-04-02T11:36:55.784Z,22.74
2023-04-02T11:37:55.765Z,22.73
2023-04-02T11:39:04.452Z,22.73
2023-04-02T11:39:55.740Z,22.72
2023-04-02T11:40:55.751Z,22.71
2023-04-02T11:41:55.838Z,22.71
2023-04-02T11:42:55.698Z,22.71
2023-04-02T11:43:55.682Z,22.70
2023-04-02T11:44:55.674Z,22.70
2023-04-02T11:45:55.937Z,22.69
2023-04-02T11:46:55.717Z,22.68
2023-04-02T11:47:55.670Z,22.68
2023-04-02T11:48:55.632Z,22.68
2023-04-02T11:49:55.589Z,22.68
2023-04-02T11:50:55.590Z,22.68
2023-04-02T11:52:09.125Z,22.68
2023-04-02T11:52:55.556Z,22.67
2023-04-02T11:53:55.524Z,22.67
2023-04-02T11:54:55.506Z,22.67
2023-04-02T11:55:55.497Z,22.67
2023-04-02T11:56:54.604Z,22.67
2023-04-02T11:57:55.457Z,22.67
2023-04-02T11:58:55.453Z,22.67
2023-04-02T11:59:55.436Z,22.66
2023-04-02T12:00:55.420Z,22.66
2023-04-02T12:01:55.455Z,22.66
2023-04-02T12:02:55.431Z,22.66
2023-04-02T12:03:55.373Z,22.67
2023-04-02T12:04:55.380Z,22.67
2023-04-02T12:05:55.333Z,22.67
2023-04-02T12:06:56.160Z,22.67
2023-04-02T12:07:55.317Z,22.67
2023-04-02T12:08:58.062Z,22.68
2023-04-02T12:09:55.354Z,22.68
2023-04-02T12:10:55.333Z,22.68
2023-04-02T12:11:55.315Z,22.68
2023-04-02T12:12:55.374Z,22.68
2023-04-02T12:13:55.285Z,22.70
2023-04-02T12:14:55.279Z,22.73
2023-04-02T12:15:55.265Z,22.74
2023-04-02T12:16:55.304Z,22.75
2023-04-02T12:17:55.281Z,22.76
2023-04-02T12:18:55.218Z,22.74
2023-04-02T12:19:55.234Z,22.73
2023-04-02T12:20:55.204Z,22.74
2023-04-02T12:21:55.176Z,22.75
2023-04-02T12:22:55.154Z,22.75
2023-04-02T12:23:55.136Z,22.74
2023-04-02T12:24:55.127Z,22.74
2023-04-02T12:25:55.108Z,22.74
2023-04-02T12:26:55.089Z,22.74
2023-04-02T12:27:55.068Z,22.74
2023-04-02T12:28:55.083Z,22.74
2023-04-02T12:29:55.045Z,22.73
2023-04-02T12:30:55.054Z,22.72
2023-04-02T12:31:55.025Z,22.73
2023-04-02T12:32:55.042Z,22.73
2023-04-02T12:33:54.974Z,22.72
2023-04-02T12:34:54.975Z,22.73
2023-04-02T12:35:55.057Z,22.73
2023-04-02T12:36:55.070Z,22.73
2023-04-02T12:37:55.117Z,22.72
2023-04-02T12:38:55.158Z,22.72
2023-04-02T12:39:55.196Z,22.72
2023-04-02T12:40:55.230Z,22.72
2023-04-02T12:41:55.275Z,22.72
2023-04-02T12:42:55.296Z,22.72
2023-04-02T12:43:55.302Z,22.72
2023-04-02T12:44:55.347Z,22.73
2023-04-02T12:45:55.354Z,22.73
2023-04-02T12:46:55.358Z,22.72
2023-04-02T12:47:55.430Z,22.73
2023-04-02T12:48:55.439Z,22.73
2023-04-02T12:49:55.468Z,22.73
2023-04-02T12:50:55.498Z,22.73
2023-04-02T12:51:55.551Z,22.73
2023-04-02T12:52:55.616Z,22.72